Pascal — V2LP — position and weather

sailwx.info

Track history (hours):
 
Tides and Currents Weather Stations Pressure Air Temp Water Temp Dewpoint Dewpoint Depression Visibility Wind Speed Wind Dir Waves Ship Positions

Pascal

Last reported at 2018-Jan-19 08:19 UTC. Time now 2018-Jan-21 22:47 UTC.
Position N 43°20' W 001°56'.

Length 90 m; draft 5.8 m.

Type: Cargo ship. MMSI: 304291000.

Date/timePositionNaut miles runAvg speedWind from/ knotsBaromVisibWave heightAir tempDewpointWater temp
2018-Jan-19 08:19N 43°20' W 001°56'3 8.3
2018-Jan-19 08:01N 43°23' W 001°57'1 2.5
2018-Jan-19 07:30N 43°24' W 001°58'1 1.1
2018-Jan-19 07:00N 43°23' W 001°58'1 1.1
2018-Jan-19 06:30N 43°23' W 001°57'0 1.0
2018-Jan-19 06:00N 43°22' W 001°57'1 1.7
2018-Jan-19 05:30N 43°21' W 001°57'1 1.7
2018-Jan-19 05:00N 43°22' W 001°56'2 4.2
2018-Jan-19 04:30N 43°24' W 001°57'0 0.8
2018-Jan-19 04:01N 43°24' W 001°57'2 2.2
2018-Jan-19 03:15N 43°25' W 001°58'1 2.3
2018-Jan-19 03:00N 43°26' W 001°59'0 0.8
2018-Jan-19 02:31N 43°26' W 001°59'0 0.5
2018-Jan-19 02:00N 43°26' W 001°59'0 0.5
2018-Jan-19 01:31N 43°25' W 001°60'0 0.5
2018-Jan-19 01:00N 43°25' W 001°60'0 0.4
2018-Jan-19 00:28N 43°25' W 001°60'0 0.4
2018-Jan-19 00:00N 43°25' W 001°60'0 0.5
2018-Jan-18 23:29N 43°25' W 001°60'0 0.4
2018-Jan-18 22:58N 43°24' W 001°60'0 0.3
2018-Jan-18 22:30N 43°24' W 001°60'0 0.2
2018-Jan-18 22:00N 43°24' W 001°60'0 0.4
2018-Jan-18 21:30N 43°24' W 001°60'0 0.5
2018-Jan-18 21:01N 43°24' W 001°60'0 0.5
2018-Jan-18 20:30N 43°24' W 001°59'0 0.5
2018-Jan-18 20:00N 43°24' W 001°59'1 1.2
2018-Jan-18 19:30N 43°23' W 001°58'1 1.1
2018-Jan-18 19:01N 43°23' W 001°58'1 1.0
2018-Jan-18 18:30N 43°23' W 001°57'0 0.5
2018-Jan-18 18:00N 43°23' W 001°57'0 0.5
2018-Jan-18 17:30N 43°23' W 001°57'0 0.4
2018-Jan-18 17:01N 43°22' W 001°56'0 0.9
2018-Jan-18 16:28N 43°22' W 001°56'0 0.9
2018-Jan-18 16:01N 43°22' W 001°57'1 1.7
2018-Jan-18 15:30N 43°23' W 001°57'0 0.9
2018-Jan-18 15:00N 43°23' W 001°57'1 2.2
2018-Jan-18 14:31N 43°23' W 001°58'1 2.2
2018-Jan-18 14:01N 43°24' W 001°59'1 2.2
2018-Jan-18 13:30N 43°25' W 002°00'1 1.2
2018-Jan-18 13:00N 43°25' W 002°01'0 0.5
2018-Jan-18 12:30N 43°24' W 002°01'0 0.2
2018-Jan-18 12:00N 43°24' W 002°01'0 0.6
2018-Jan-18 11:30N 43°24' W 002°01'0 0.9
2018-Jan-18 11:00N 43°24' W 002°00'1 1.3
2018-Jan-18 10:30N 43°24' W 001°59'1 2.6
2018-Jan-18 10:00N 43°23' W 001°58'1 1.6
2018-Jan-18 09:31N 43°23' W 001°57'1 1.0
2018-Jan-18 09:01N 43°22' W 001°58'1 1.7
2018-Jan-18 08:30N 43°22' W 001°59'1 1.8
2018-Jan-18 08:00N 43°23' W 001°60'1 1.6
2018-Jan-18 07:31N 43°23' W 002°01'1 1.7
2018-Jan-18 07:00N 43°23' W 002°02'1 2.0
2018-Jan-18 06:30N 43°24' W 002°03'1 2.4
2018-Jan-18 06:01N 43°25' W 002°04'0 0.8
2018-Jan-18 05:31N 43°24' W 002°04'1 1.9
2018-Jan-18 05:01N 43°24' W 002°03'1 2.2
2018-Jan-18 04:30N 43°23' W 002°02'1 2.2
2018-Jan-18 04:00N 43°23' W 002°00'1 2.0
2018-Jan-18 03:30N 43°23' W 001°59'0 0.7
2018-Jan-18 03:01N 43°23' W 001°59'1 2.5
2018-Jan-18 02:30N 43°23' W 002°01'1 2.8
2018-Jan-18 02:00N 43°24' W 002°02'1 2.8
2018-Jan-18 01:29N 43°25' W 002°04'0 0.7
2018-Jan-18 01:00N 43°25' W 002°03'2 1.7
2018-Jan-18 00:00N 43°24' W 002°01'0 1.5
2018-Jan-17 23:57N 43°24' W 002°01'  
Track history (hours):
 
Tides and Currents Weather Stations Pressure Air Temp Water Temp Dewpoint Dewpoint Depression Visibility Wind Speed Wind Dir Waves Ship Positions

Pascal

Last reported at 2018-Jan-19 08:19 UTC. Time now 2018-Jan-21 22:47 UTC.
Position N 43°20' W 001°56'.

Length 90 m; draft 5.8 m.

Type: Cargo ship. MMSI: 304291000.

Date/timePositionNaut miles runAvg speedWind from/ knotsBaromVisibWave heightAir tempDewpointWater temp
2018-Jan-19 08:19N 43°20' W 001°56'3 8.3
2018-Jan-19 08:01N 43°23' W 001°57'1 2.5
2018-Jan-19 07:30N 43°24' W 001°58'1 1.1
2018-Jan-19 07:00N 43°23' W 001°58'1 1.1
2018-Jan-19 06:30N 43°23' W 001°57'0 1.0
2018-Jan-19 06:00N 43°22' W 001°57'1 1.7
2018-Jan-19 05:30N 43°21' W 001°57'1 1.7
2018-Jan-19 05:00N 43°22' W 001°56'2 4.2
2018-Jan-19 04:30N 43°24' W 001°57'0 0.8
2018-Jan-19 04:01N 43°24' W 001°57'2 2.2
2018-Jan-19 03:15N 43°25' W 001°58'1 2.3
2018-Jan-19 03:00N 43°26' W 001°59'0 0.8
2018-Jan-19 02:31N 43°26' W 001°59'0 0.5
2018-Jan-19 02:00N 43°26' W 001°59'0 0.5
2018-Jan-19 01:31N 43°25' W 001°60'0 0.5
2018-Jan-19 01:00N 43°25' W 001°60'0 0.4
2018-Jan-19 00:28N 43°25' W 001°60'0 0.4
2018-Jan-19 00:00N 43°25' W 001°60'0 0.5
2018-Jan-18 23:29N 43°25' W 001°60'0 0.4
2018-Jan-18 22:58N 43°24' W 001°60'0 0.3
2018-Jan-18 22:30N 43°24' W 001°60'0 0.2
2018-Jan-18 22:00N 43°24' W 001°60'0 0.4
2018-Jan-18 21:30N 43°24' W 001°60'0 0.5
2018-Jan-18 21:01N 43°24' W 001°60'0 0.5
2018-Jan-18 20:30N 43°24' W 001°59'0 0.5
2018-Jan-18 20:00N 43°24' W 001°59'1 1.2
2018-Jan-18 19:30N 43°23' W 001°58'1 1.1
2018-Jan-18 19:01N 43°23' W 001°58'1 1.0
2018-Jan-18 18:30N 43°23' W 001°57'0 0.5
2018-Jan-18 18:00N 43°23' W 001°57'0 0.5
2018-Jan-18 17:30N 43°23' W 001°57'0 0.4
2018-Jan-18 17:01N 43°22' W 001°56'0 0.9
2018-Jan-18 16:28N 43°22' W 001°56'0 0.9
2018-Jan-18 16:01N 43°22' W 001°57'1 1.7
2018-Jan-18 15:30N 43°23' W 001°57'0 0.9
2018-Jan-18 15:00N 43°23' W 001°57'1 2.2
2018-Jan-18 14:31N 43°23' W 001°58'1 2.2
2018-Jan-18 14:01N 43°24' W 001°59'1 2.2
2018-Jan-18 13:30N 43°25' W 002°00'1 1.2
2018-Jan-18 13:00N 43°25' W 002°01'0 0.5
2018-Jan-18 12:30N 43°24' W 002°01'0 0.2
2018-Jan-18 12:00N 43°24' W 002°01'0 0.6
2018-Jan-18 11:30N 43°24' W 002°01'0 0.9
2018-Jan-18 11:00N 43°24' W 002°00'1 1.3
2018-Jan-18 10:30N 43°24' W 001°59'1 2.6
2018-Jan-18 10:00N 43°23' W 001°58'1 1.6
2018-Jan-18 09:31N 43°23' W 001°57'1 1.0
2018-Jan-18 09:01N 43°22' W 001°58'1 1.7
2018-Jan-18 08:30N 43°22' W 001°59'1 1.8
2018-Jan-18 08:00N 43°23' W 001°60'1 1.6
2018-Jan-18 07:31N 43°23' W 002°01'1 1.7
2018-Jan-18 07:00N 43°23' W 002°02'1 2.0
2018-Jan-18 06:30N 43°24' W 002°03'1 2.4
2018-Jan-18 06:01N 43°25' W 002°04'0 0.8
2018-Jan-18 05:31N 43°24' W 002°04'1 1.9
2018-Jan-18 05:01N 43°24' W 002°03'1 2.2
2018-Jan-18 04:30N 43°23' W 002°02'1 2.2
2018-Jan-18 04:00N 43°23' W 002°00'1 2.0
2018-Jan-18 03:30N 43°23' W 001°59'0 0.7
2018-Jan-18 03:01N 43°23' W 001°59'1 2.5
2018-Jan-18 02:30N 43°23' W 002°01'1 2.8
2018-Jan-18 02:00N 43°24' W 002°02'1 2.8
2018-Jan-18 01:29N 43°25' W 002°04'0 0.7
2018-Jan-18 01:00N 43°25' W 002°03'2 1.7
2018-Jan-18 00:00N 43°24' W 002°01'0 1.5
2018-Jan-17 23:57N 43°24' W 002°01'  

Dump ship's entire track history